Time;durP1;ratioP1;P1;durP2;ratioP2;P2;SDS_P1;SDS_P2;PMS_P1;PMS_P2;Temp;Humidity;BMP_temperature;BMP_pressure;BME280_temperature;BME280_humidity;BME280_pressure;Samples;Min_cycle;Max_cycle;Signal;HPM_P1;HPM_P2
2022/10/13 00:00:00;;;;;;;;;;;17.70;66.50;;;;;;4546834;31;20032;-67
2022/10/13 00:02:26;;;;;;;;;;;17.70;66.50;;;;;;4560379;31;20050;-66
2022/10/13 00:04:53;;;;;;;;;;;17.70;66.50;;;;;;4546954;31;20031;-67
2022/10/13 00:07:18;;;;;;;;;;;17.70;66.50;;;;;;4562589;31;19960;-65
2022/10/13 00:09:44;;;;;;;;;;;17.70;66.50;;;;;;4560490;31;20028;-67
2022/10/13 00:12:10;;;;;;;;;;;17.70;66.50;;;;;;4546481;31;20121;-66
2022/10/13 00:14:36;;;;;;;;;;;17.70;66.50;;;;;;4531032;31;20046;-66
2022/10/13 00:17:01;;;;;;;;;;;17.70;66.60;;;;;;4561233;31;20133;-67
2022/10/13 00:19:29;;;;;;;;;;;17.70;66.60;;;;;;4559845;31;20088;-66
2022/10/13 00:21:54;;;;;;;;;;;17.70;66.60;;;;;;4560718;31;20049;-66
2022/10/13 00:24:20;;;;;;;;;;;17.70;66.60;;;;;;4533293;31;19984;-67
2022/10/13 00:26:48;;;;;;;;;;;17.70;66.60;;;;;;4544531;31;20028;-66
2022/10/13 00:29:14;;;;;;;;;;;17.70;66.60;;;;;;4547164;31;20036;-66
2022/10/13 00:31:39;;;;;;;;;;;17.70;66.60;;;;;;4544435;31;20034;-66
2022/10/13 00:34:05;;;;;;;;;;;17.70;66.60;;;;;;4546743;31;20035;-66
2022/10/13 00:36:31;;;;;;;;;;;17.70;66.60;;;;;;4544878;31;20027;-66
2022/10/13 00:38:57;;;;;;;;;;;17.70;66.60;;;;;;4560659;31;20047;-66
2022/10/13 00:41:23;;;;;;;;;;;17.70;66.50;;;;;;4547085;31;19976;-66
2022/10/13 00:43:59;;;;;;;;;;;17.70;66.60;;;;;;4545191;31;20134;-66
2022/10/13 00:46:27;;;;;;;;;;;17.70;66.60;;;;;;4561956;31;20031;-66
2022/10/13 00:48:53;;;;;;;;;;;17.60;66.50;;;;;;4559997;31;20008;-66
2022/10/13 00:51:21;;;;;;;;;;;17.60;66.50;;;;;;4546896;31;20034;-66
2022/10/13 00:53:47;;;;;;;;;;;17.70;66.60;;;;;;4545728;31;20023;-66
2022/10/13 00:56:15;;;;;;;;;;;17.60;66.60;;;;;;4546287;31;20035;-66
2022/10/13 00:58:41;;;;;;;;;;;17.60;66.60;;;;;;4532932;31;19985;-66
2022/10/13 01:01:06;;;;;;;;;;;17.60;66.60;;;;;;4544861;31;20012;-66
2022/10/13 01:03:32;;;;;;;;;;;17.60;66.60;;;;;;4562114;31;20032;-67
2022/10/13 01:06:00;;;;;;;;;;;17.60;66.60;;;;;;4560031;31;20031;-67
2022/10/13 01:22:17;;;;;;;;;;;17.60;66.60;;;;;;4599162;26;20171;-72
2022/10/13 01:24:45;;;;;;;;;;;17.60;66.60;;;;;;4443194;32;20096;-72
2022/10/13 01:27:17;;;;;;;;;;;17.60;66.60;;;;;;4482664;31;20027;-72
2022/10/13 01:29:49;;;;;;;;;;;17.60;66.60;;;;;;4493831;31;19977;-72
2022/10/13 01:32:17;;;;;;;;;;;17.60;66.60;;;;;;4495353;31;19987;-72
2022/10/13 01:34:46;;;;;;;;;;;17.60;66.60;;;;;;4495281;31;19969;-72
2022/10/13 01:37:26;;;;;;;;;;;17.60;66.60;;;;;;4495065;31;20213;-71
2022/10/13 01:40:10;;;;;;;;;;;17.60;66.60;;;;;;4495324;31;20131;-72
2022/10/13 01:42:41;;;;;;;;;;;17.60;66.60;;;;;;4495430;31;19981;-72
2022/10/13 01:45:09;;;;;;;;;;;17.60;66.60;;;;;;4495135;31;19977;-71
2022/10/13 01:47:36;;;;;;;;;;;17.60;66.60;;;;;;4495236;31;19981;-72
2022/10/13 01:50:03;;;;;;;;;;;17.50;66.60;;;;;;4495342;31;20243;-71
2022/10/13 01:52:31;;;;;;;;;;;17.50;66.60;;;;;;4495043;31;19980;-71
2022/10/13 01:55:03;;;;;;;;;;;17.50;66.60;;;;;;4495158;31;20070;-71
2022/10/13 01:57:33;;;;;;;;;;;17.50;66.70;;;;;;4495369;31;20319;-71
2022/10/13 02:00:00;;;;;;;;;;;17.50;67.40;;;;;;4495224;31;20330;-71
2022/10/13 02:02:33;;;;;;;;;;;17.50;66.60;;;;;;4494941;31;19988;-71
2022/10/13 02:05:06;;;;;;;;;;;17.50;67.50;;;;;;4495221;31;19983;-71
2022/10/13 02:07:33;;;;;;;;;;;17.50;66.60;;;;;;4494905;31;19978;-72
2022/10/13 02:10:10;;;;;;;;;;;17.50;66.60;;;;;;4494738;31;19976;-72
2022/10/13 02:12:36;;;;;;;;;;;17.50;66.70;;;;;;4494871;31;19987;-72
2022/10/13 02:15:03;;;;;;;;;;;17.50;66.70;;;;;;4495047;31;20009;-72
2022/10/13 02:17:29;;;;;;;;;;;17.50;66.60;;;;;;4494986;31;19985;-71
2022/10/13 02:19:56;;;;;;;;;;;17.50;66.60;;;;;;4494375;31;20393;-71
2022/10/13 02:22:24;;;;;;;;;;;17.50;66.60;;;;;;4495008;31;20139;-71
2022/10/13 02:24:51;;;;;;;;;;;17.50;66.70;;;;;;4494261;31;19982;-71
2022/10/13 02:27:16;;;;;;;;;;;17.50;66.70;;;;;;4494495;31;20012;-71
2022/10/13 02:29:49;;;;;;;;;;;17.50;66.60;;;;;;4494342;31;20347;-72
2022/10/13 02:32:15;;;;;;;;;;;17.50;66.70;;;;;;4494501;31;20104;-71
2022/10/13 02:34:41;;;;;;;;;;;17.50;66.70;;;;;;4494404;31;19974;-71
2022/10/13 02:37:06;;;;;;;;;;;17.50;66.70;;;;;;4494682;31;20314;-71
2022/10/13 02:39:32;;;;;;;;;;;17.50;66.60;;;;;;4493850;31;20044;-71
2022/10/13 02:41:58;;;;;;;;;;;17.50;66.70;;;;;;4494124;31;19989;-71
2022/10/13 02:44:24;;;;;;;;;;;17.50;66.70;;;;;;4494259;31;19981;-71
2022/10/13 02:46:49;;;;;;;;;;;17.50;66.70;;;;;;4493954;31;19984;-72
2022/10/13 02:49:15;;;;;;;;;;;17.50;66.70;;;;;;4492907;31;20495;-71
2022/10/13 02:51:41;;;;;;;;;;;17.50;66.70;;;;;;4494206;31;20368;-71
2022/10/13 02:54:07;;;;;;;;;;;17.50;66.60;;;;;;4494168;31;20407;-72
2022/10/13 02:56:32;;;;;;;;;;;17.50;66.70;;;;;;4494168;31;20155;-71
2022/10/13 02:59:00;;;;;;;;;;;17.50;66.70;;;;;;4494357;31;19981;-71
2022/10/13 03:01:26;;;;;;;;;;;17.50;66.70;;;;;;4494290;31;19980;-71
2022/10/13 03:03:51;;;;;;;;;;;17.50;66.60;;;;;;4492713;31;20067;-71
2022/10/13 03:06:17;;;;;;;;;;;17.50;66.70;;;;;;4493909;31;20046;-71
2022/10/13 03:08:44;;;;;;;;;;;17.50;66.60;;;;;;4493952;31;19988;-72
2022/10/13 03:11:09;;;;;;;;;;;17.50;66.70;;;;;;4494135;31;19969;-71
2022/10/13 03:13:35;;;;;;;;;;;17.50;66.70;;;;;;4493871;31;20303;-71
2022/10/13 03:16:01;;;;;;;;;;;17.50;66.80;;;;;;4493841;31;20322;-71
2022/10/13 03:18:27;;;;;;;;;;;17.50;66.70;;;;;;4493692;31;20027;-71
2022/10/13 03:20:59;;;;;;;;;;;17.50;66.70;;;;;;4493545;31;20009;-71
2022/10/13 03:23:25;;;;;;;;;;;17.40;66.60;;;;;;4492627;31;19989;-71
2022/10/13 03:25:51;;;;;;;;;;;17.40;66.70;;;;;;4493724;31;19980;-72
2022/10/13 03:28:17;;;;;;;;;;;17.40;66.70;;;;;;4493638;31;19961;-72
2022/10/13 03:30:43;;;;;;;;;;;17.40;66.70;;;;;;4493409;31;19989;-71
2022/10/13 03:33:08;;;;;;;;;;;17.50;66.70;;;;;;4492246;31;19961;-71
2022/10/13 03:35:35;;;;;;;;;;;17.40;66.70;;;;;;4493487;31;20051;-71
2022/10/13 03:38:01;;;;;;;;;;;17.40;66.70;;;;;;4493276;31;19989;-71
2022/10/13 03:40:27;;;;;;;;;;;17.40;66.70;;;;;;4493418;31;19978;-71
2022/10/13 03:42:53;;;;;;;;;;;17.40;66.70;;;;;;4493548;31;20111;-71
2022/10/13 03:45:19;;;;;;;;;;;17.40;66.70;;;;;;4493172;31;20107;-71
2022/10/13 03:47:44;;;;;;;;;;;17.40;66.70;;;;;;4492918;31;20011;-72
2022/10/13 03:50:10;;;;;;;;;;;17.40;66.70;;;;;;4493057;31;19980;-71
2022/10/13 03:52:36;;;;;;;;;;;17.40;66.80;;;;;;4492975;31;20091;-71
2022/10/13 03:55:02;;;;;;;;;;;17.40;66.70;;;;;;4493544;31;20024;-71
2022/10/13 03:57:27;;;;;;;;;;;17.40;66.70;;;;;;4492911;31;20402;-71
2022/10/13 03:59:55;;;;;;;;;;;17.40;66.70;;;;;;4493130;31;20017;-71
2022/10/13 04:02:21;;;;;;;;;;;17.40;66.80;;;;;;4493113;31;20091;-71
2022/10/13 04:04:46;;;;;;;;;;;17.40;66.80;;;;;;4492061;31;20272;-71
2022/10/13 04:07:12;;;;;;;;;;;17.40;66.80;;;;;;4492955;31;20005;-71
2022/10/13 04:09:39;;;;;;;;;;;17.40;66.70;;;;;;4492988;31;20120;-71
2022/10/13 04:12:04;;;;;;;;;;;17.40;66.70;;;;;;4492728;31;20375;-71
2022/10/13 04:14:30;;;;;;;;;;;17.40;66.80;;;;;;4491965;31;19976;-71
2022/10/13 04:16:56;;;;;;;;;;;17.40;66.80;;;;;;4492942;31;19980;-71
2022/10/13 04:19:21;;;;;;;;;;;17.40;66.80;;;;;;4492803;31;20303;-71
2022/10/13 04:21:47;;;;;;;;;;;17.40;66.80;;;;;;4492705;31;19989;-71
2022/10/13 04:24:13;;;;;;;;;;;17.40;66.80;;;;;;4491805;31;20091;-71
2022/10/13 04:26:39;;;;;;;;;;;17.40;66.80;;;;;;4492753;31;19977;-71
2022/10/13 04:29:06;;;;;;;;;;;17.40;66.90;;;;;;4492782;31;19970;-71
2022/10/13 04:31:32;;;;;;;;;;;17.40;66.80;;;;;;4492813;31;20590;-71
2022/10/13 04:33:58;;;;;;;;;;;17.40;66.80;;;;;;4492739;31;19977;-71
2022/10/13 04:36:24;;;;;;;;;;;17.40;66.80;;;;;;4492453;31;19977;-71
2022/10/13 04:38:50;;;;;;;;;;;17.40;66.80;;;;;;4492407;31;19981;-71
2022/10/13 04:41:16;;;;;;;;;;;17.30;66.80;;;;;;4491434;31;19984;-71
2022/10/13 04:43:42;;;;;;;;;;;17.40;66.80;;;;;;4492684;31;20004;-72
2022/10/13 04:46:09;;;;;;;;;;;17.40;66.90;;;;;;4492392;31;20429;-71
2022/10/13 04:48:35;;;;;;;;;;;17.40;66.80;;;;;;4492193;31;20024;-71
2022/10/13 04:51:02;;;;;;;;;;;17.40;66.90;;;;;;4491530;31;20104;-71
2022/10/13 04:53:28;;;;;;;;;;;17.40;66.90;;;;;;4492650;31;20387;-71
2022/10/13 04:55:55;;;;;;;;;;;17.40;66.90;;;;;;4492923;31;19992;-71
2022/10/13 04:58:20;;;;;;;;;;;17.40;66.90;;;;;;4492324;31;20086;-71
2022/10/13 05:00:46;;;;;;;;;;;17.30;66.80;;;;;;4492577;31;20284;-71
2022/10/13 05:03:12;;;;;;;;;;;17.30;66.80;;;;;;4493700;31;19997;-71
2022/10/13 05:05:38;;;;;;;;;;;17.30;66.80;;;;;;4495789;31;19969;-71
2022/10/13 05:08:04;;;;;;;;;;;17.30;66.80;;;;;;4495724;31;19977;-71
2022/10/13 05:10:31;;;;;;;;;;;17.30;66.80;;;;;;4495453;31;19985;-71
2022/10/13 05:12:56;;;;;;;;;;;17.30;66.80;;;;;;4495645;31;19997;-72
2022/10/13 05:15:22;;;;;;;;;;;17.30;66.90;;;;;;4495576;31;20019;-71
2022/10/13 05:17:48;;;;;;;;;;;17.30;66.80;;;;;;4495588;31;19984;-71
2022/10/13 05:20:15;;;;;;;;;;;17.30;66.90;;;;;;4495417;31;20359;-71
2022/10/13 05:22:41;;;;;;;;;;;17.30;66.90;;;;;;4495267;31;20403;-71
2022/10/13 05:25:07;;;;;;;;;;;17.30;66.90;;;;;;4495467;31;20023;-71
2022/10/13 05:27:32;;;;;;;;;;;17.30;66.90;;;;;;4495286;31;20082;-71
2022/10/13 05:29:58;;;;;;;;;;;17.30;66.90;;;;;;4495393;31;19962;-71
2022/10/13 05:32:24;;;;;;;;;;;17.30;67.00;;;;;;4495337;31;19970;-71
2022/10/13 05:34:49;;;;;;;;;;;17.30;66.90;;;;;;4495352;31;20280;-71
2022/10/13 05:37:20;;;;;;;;;;;17.30;66.90;;;;;;4495018;31;19981;-71
2022/10/13 05:39:46;;;;;;;;;;;17.30;66.90;;;;;;4495375;31;20025;-71
2022/10/13 05:42:12;;;;;;;;;;;17.30;66.90;;;;;;4495510;31;20111;-71
2022/10/13 05:44:38;;;;;;;;;;;17.30;66.90;;;;;;4495210;31;20106;-71
2022/10/13 05:47:03;;;;;;;;;;;17.30;66.90;;;;;;4495297;31;19992;-71
2022/10/13 05:49:29;;;;;;;;;;;17.30;66.90;;;;;;4495039;31;20051;-71
2022/10/13 05:51:57;;;;;;;;;;;17.30;66.90;;;;;;4495141;31;19977;-71
2022/10/13 05:54:25;;;;;;;;;;;17.30;66.90;;;;;;4495115;31;20036;-71
2022/10/13 05:56:53;;;;;;;;;;;17.30;66.90;;;;;;4495272;31;19969;-71
2022/10/13 05:59:19;;;;;;;;;;;17.30;66.90;;;;;;4494987;31;20106;-72
2022/10/13 06:01:45;;;;;;;;;;;17.30;66.90;;;;;;4494964;31;19989;-71
2022/10/13 06:04:31;;;;;;;;;;;17.30;67.00;;;;;;4494923;31;19969;-71
2022/10/13 06:06:57;;;;;;;;;;;17.30;66.90;;;;;;4486390;31;19985;-71
2022/10/13 06:09:23;;;;;;;;;;;17.30;67.00;;;;;;4494826;31;20355;-71
2022/10/13 06:11:49;;;;;;;;;;;17.30;66.90;;;;;;4494773;31;19973;-71
2022/10/13 06:14:15;;;;;;;;;;;17.30;67.00;;;;;;4494224;31;20298;-71
2022/10/13 06:16:41;;;;;;;;;;;17.30;67.00;;;;;;4494759;31;19981;-71
2022/10/13 06:19:06;;;;;;;;;;;17.30;67.00;;;;;;4494335;31;19966;-71
2022/10/13 06:21:33;;;;;;;;;;;17.30;67.00;;;;;;4494557;31;20009;-71
2022/10/13 06:24:00;;;;;;;;;;;17.30;67.10;;;;;;4494357;31;20024;-71
2022/10/13 06:26:25;;;;;;;;;;;17.20;66.70;;;;;;4494797;31;20443;-70
2022/10/13 06:28:51;;;;;;;;;;;17.20;66.50;;;;;;4494810;31;19984;-73
2022/10/13 06:31:17;;;;;;;;;;;17.20;66.40;;;;;;4494472;31;19969;-72
2022/10/13 06:33:43;;;;;;;;;;;17.20;66.60;;;;;;4494485;31;20542;-72
2022/10/13 06:36:09;;;;;;;;;;;17.20;66.80;;;;;;4494489;31;19989;-72
2022/10/13 06:38:35;;;;;;;;;;;17.20;67.00;;;;;;4494431;31;19969;-72
2022/10/13 06:41:01;;;;;;;;;;;17.20;67.40;;;;;;4494380;31;19969;-73
2022/10/13 06:43:27;;;;;;;;;;;17.20;67.60;;;;;;4494586;31;19980;-72
2022/10/13 06:45:56;;;;;;;;;;;17.20;67.90;;;;;;4494025;31;20367;-72
2022/10/13 06:48:22;;;;;;;;;;;17.20;68.10;;;;;;4494118;31;19980;-72
2022/10/13 06:50:48;;;;;;;;;;;17.20;68.50;;;;;;4494005;31;19973;-72
2022/10/13 06:53:14;;;;;;;;;;;17.20;68.50;;;;;;4494447;31;19958;-72
2022/10/13 06:55:41;;;;;;;;;;;17.30;68.50;;;;;;4494144;31;20420;-72
2022/10/13 06:58:06;;;;;;;;;;;17.30;68.10;;;;;;4493869;31;19977;-72
2022/10/13 07:00:32;;;;;;;;;;;17.40;67.50;;;;;;4494107;31;19998;-72
2022/10/13 07:02:58;;;;;;;;;;;17.50;67.30;;;;;;4494285;31;19980;-72
2022/10/13 07:05:23;;;;;;;;;;;17.60;67.30;;;;;;4494257;31;19969;-72
2022/10/13 07:07:52;;;;;;;;;;;17.70;67.00;;;;;;4493888;31;19957;-72
2022/10/13 07:10:18;;;;;;;;;;;17.80;67.70;;;;;;4493986;31;20092;-71
2022/10/13 07:12:45;;;;;;;;;;;17.90;66.60;;;;;;4494120;31;19969;-71
2022/10/13 07:15:11;;;;;;;;;;;18.10;66.20;;;;;;4493848;31;20118;-71
2022/10/13 07:17:36;;;;;;;;;;;18.20;66.00;;;;;;4494097;31;19977;-70
2022/10/13 07:20:03;;;;;;;;;;;18.40;65.80;;;;;;4493902;31;19961;-70
2022/10/13 07:22:30;;;;;;;;;;;18.50;65.60;;;;;;4493826;31;20062;-70
2022/10/13 07:24:55;;;;;;;;;;;18.60;65.40;;;;;;4493638;31;19981;-70
2022/10/13 07:27:22;;;;;;;;;;;18.70;65.30;;;;;;4492670;31;20087;-72
2022/10/13 07:29:47;;;;;;;;;;;18.80;65.00;;;;;;4493198;31;20181;-74
2022/10/13 07:32:13;;;;;;;;;;;18.90;65.00;;;;;;4492199;31;20538;-73
2022/10/13 07:34:39;;;;;;;;;;;19.00;64.80;;;;;;4493192;31;19974;-73
2022/10/13 07:37:05;;;;;;;;;;;19.10;64.80;;;;;;4493560;31;19973;-73
2022/10/13 07:39:30;;;;;;;;;;;19.10;64.70;;;;;;4493511;31;19973;-72
2022/10/13 07:41:56;;;;;;;;;;;19.20;64.60;;;;;;4493468;31;19974;-73
2022/10/13 07:44:22;;;;;;;;;;;19.20;64.50;;;;;;4493076;31;19973;-72
2022/10/13 07:46:47;;;;;;;;;;;19.30;64.50;;;;;;4493278;31;20079;-73
2022/10/13 07:49:13;;;;;;;;;;;19.30;64.40;;;;;;4493130;31;20000;-73
2022/10/13 07:51:39;;;;;;;;;;;19.40;64.30;;;;;;4493024;31;20036;-71
2022/10/13 07:54:05;;;;;;;;;;;19.40;64.30;;;;;;4493420;31;19980;-72
2022/10/13 07:56:30;;;;;;;;;;;19.40;64.20;;;;;;4493471;31;20319;-72
2022/10/13 07:58:56;;;;;;;;;;;19.50;64.20;;;;;;4493431;31;20063;-72
2022/10/13 08:01:22;;;;;;;;;;;19.60;64.10;;;;;;4492878;31;20157;-72
2022/10/13 08:03:48;;;;;;;;;;;19.60;64.10;;;;;;4493096;31;20310;-73
2022/10/13 08:06:14;;;;;;;;;;;19.60;64.10;;;;;;4493088;31;19966;-71
2022/10/13 08:08:39;;;;;;;;;;;19.60;64.00;;;;;;4493461;31;19965;-71
2022/10/13 08:11:07;;;;;;;;;;;19.60;64.00;;;;;;4492988;31;19979;-71
2022/10/13 08:13:34;;;;;;;;;;;19.70;64.10;;;;;;4492889;31;20029;-71
2022/10/13 08:21:57;;;;;;;;;;;19.80;64.00;;;;;;1734333;26;20017;-73
2022/10/13 08:24:23;;;;;;;;;;;19.80;63.90;;;;;;4477316;31;19974;-69
2022/10/13 08:26:49;;;;;;;;;;;19.80;63.90;;;;;;4476631;32;20098;-72
2022/10/13 08:29:16;;;;;;;;;;;19.90;64.00;;;;;;4476883;32;20526;-71
2022/10/13 08:31:41;;;;;;;;;;;19.90;63.90;;;;;;4476535;32;20059;-71
2022/10/13 08:34:08;;;;;;;;;;;19.90;63.90;;;;;;4477308;32;19962;-73
2022/10/13 08:36:34;;;;;;;;;;;19.90;63.90;;;;;;4477031;32;19969;-72
2022/10/13 08:38:59;;;;;;;;;;;19.90;63.80;;;;;;4476939;32;20016;-74
2022/10/13 08:41:27;;;;;;;;;;;20.00;63.90;;;;;;4476913;32;20378;-74
2022/10/13 08:43:55;;;;;;;;;;;20.00;63.90;;;;;;4477212;32;19982;-74
2022/10/13 08:46:25;;;;;;;;;;;20.00;63.90;;;;;;4476816;32;20000;-73
2022/10/13 08:48:51;;;;;;;;;;;20.00;63.80;;;;;;4462641;32;19986;-75
2022/10/13 08:51:17;;;;;;;;;;;20.10;63.80;;;;;;4476760;32;19958;-74
2022/10/13 08:53:45;;;;;;;;;;;20.10;63.80;;;;;;4476866;32;19981;-74
2022/10/13 08:56:18;;;;;;;;;;;20.10;63.70;;;;;;4476847;32;19978;-74
2022/10/13 08:58:44;;;;;;;;;;;20.20;63.80;;;;;;4476888;32;20477;-73
2022/10/13 09:01:09;;;;;;;;;;;20.20;63.70;;;;;;4476759;32;20060;-73
2022/10/13 09:03:44;;;;;;;;;;;20.20;63.80;;;;;;4476706;32;19962;-73
2022/10/13 09:06:36;;;;;;;;;;;20.20;63.80;;;;;;4476824;32;20090;-72
2022/10/13 09:09:07;;;;;;;;;;;20.20;63.80;;;;;;4475334;32;20029;-73
2022/10/13 09:11:34;;;;;;;;;;;20.30;63.80;;;;;;4476951;32;19985;-72
2022/10/13 09:14:03;;;;;;;;;;;20.30;63.70;;;;;;4476387;32;20446;-74
2022/10/13 09:16:32;;;;;;;;;;;20.30;63.80;;;;;;4476543;32;20380;-75
2022/10/13 09:19:10;;;;;;;;;;;20.30;63.80;;;;;;4476638;32;20339;-74
2022/10/13 09:21:36;;;;;;;;;;;20.30;63.80;;;;;;4476684;32;20533;-74
2022/10/13 09:24:05;;;;;;;;;;;20.30;63.80;;;;;;4476353;32;19961;-73
2022/10/13 09:26:35;;;;;;;;;;;20.30;63.80;;;;;;4476586;32;20048;-70
2022/10/13 09:29:06;;;;;;;;;;;20.30;63.90;;;;;;4462494;32;20082;-71
2022/10/13 09:31:34;;;;;;;;;;;20.30;63.80;;;;;;4476802;32;20060;-71
2022/10/13 09:34:01;;;;;;;;;;;20.30;63.90;;;;;;4476791;32;20052;-71
2022/10/13 09:36:27;;;;;;;;;;;20.30;63.80;;;;;;4476621;32;20401;-70
2022/10/13 09:39:13;;;;;;;;;;;20.30;63.80;;;;;;4476202;32;19965;-71
2022/10/13 09:41:39;;;;;;;;;;;20.40;63.90;;;;;;4476441;32;19990;-72
2022/10/13 09:44:17;;;;;;;;;;;20.40;63.90;;;;;;4462375;32;20027;-72
2022/10/13 09:46:43;;;;;;;;;;;20.40;63.80;;;;;;4476161;32;20029;-70
2022/10/13 09:49:24;;;;;;;;;;;20.40;63.80;;;;;;4476440;32;20657;-71
2022/10/13 09:51:50;;;;;;;;;;;20.50;64.70;;;;;;4479285;32;20010;-69
2022/10/13 09:54:34;;;;;;;;;;;20.50;63.70;;;;;;4479327;32;19989;-75
2022/10/13 09:57:02;;;;;;;;;;;20.50;63.70;;;;;;4479316;32;20422;-75
2022/10/13 09:59:35;;;;;;;;;;;20.50;63.70;;;;;;4479296;32;20088;-75
2022/10/13 10:02:10;;;;;;;;;;;20.50;63.70;;;;;;4479212;32;20100;-76
2022/10/13 10:04:37;;;;;;;;;;;20.50;63.70;;;;;;4479321;32;19970;-76
2022/10/13 10:07:14;;;;;;;;;;;20.60;63.70;;;;;;4479228;32;20404;-77
2022/10/13 10:09:43;;;;;;;;;;;20.60;63.60;;;;;;4479414;32;20155;-78
2022/10/13 10:12:12;;;;;;;;;;;20.70;63.70;;;;;;4479096;32;19989;-76
2022/10/13 10:14:38;;;;;;;;;;;20.70;63.70;;;;;;4479093;32;20107;-75
2022/10/13 10:17:10;;;;;;;;;;;20.70;63.70;;;;;;4478973;32;20034;-76
2022/10/13 10:19:36;;;;;;;;;;;20.70;63.70;;;;;;4479082;32;19978;-77
2022/10/13 10:22:08;;;;;;;;;;;20.70;63.70;;;;;;4478538;32;19976;-76
2022/10/13 10:24:52;;;;;;;;;;;20.70;63.70;;;;;;4479536;32;19989;-76
2022/10/13 10:27:24;;;;;;;;;;;20.80;63.70;;;;;;4478724;32;20008;-76
2022/10/13 10:29:54;;;;;;;;;;;20.80;63.80;;;;;;4478916;32;20095;-76
2022/10/13 10:32:29;;;;;;;;;;;20.80;63.70;;;;;;4478830;32;20207;-76
2022/10/13 10:34:57;;;;;;;;;;;20.80;63.70;;;;;;4478800;32;19988;-76
2022/10/13 10:37:37;;;;;;;;;;;20.80;63.60;;;;;;4478739;32;20004;-76
2022/10/13 10:40:10;;;;;;;;;;;20.90;63.70;;;;;;4479075;32;19970;-76
2022/10/13 10:42:39;;;;;;;;;;;20.90;63.70;;;;;;4478767;32;19986;-76
2022/10/13 10:45:13;;;;;;;;;;;20.90;63.70;;;;;;4478700;32;19970;-76
2022/10/13 10:47:41;;;;;;;;;;;20.90;63.70;;;;;;4478387;32;19985;-77
2022/10/13 10:50:12;;;;;;;;;;;20.90;63.60;;;;;;4478599;32;19982;-76
2022/10/13 10:52:43;;;;;;;;;;;20.90;63.70;;;;;;4478928;32;20307;-75
2022/10/13 10:55:24;;;;;;;;;;;21.00;63.70;;;;;;4478271;32;20400;-76
2022/10/13 10:57:56;;;;;;;;;;;21.00;63.80;;;;;;4478554;32;20020;-76
2022/10/13 11:00:22;;;;;;;;;;;21.00;63.80;;;;;;4478167;32;19982;-76
2022/10/13 11:02:58;;;;;;;;;;;21.00;63.80;;;;;;4478538;32;19966;-76
2022/10/13 11:05:24;;;;;;;;;;;21.00;63.70;;;;;;4478420;32;20032;-75
2022/10/13 11:07:49;;;;;;;;;;;21.00;63.70;;;;;;4478187;32;20079;-75
2022/10/13 11:10:17;;;;;;;;;;;21.10;63.80;;;;;;4478300;32;19962;-74
2022/10/13 11:12:49;;;;;;;;;;;21.10;63.80;;;;;;4478171;32;19978;-74
2022/10/13 11:15:22;;;;;;;;;;;21.10;63.80;;;;;;4477929;32;20104;-74
2022/10/13 11:17:48;;;;;;;;;;;21.10;63.80;;;;;;4478396;32;19985;-74
2022/10/13 11:20:19;;;;;;;;;;;21.10;63.80;;;;;;4478507;32;19962;-74
2022/10/13 11:22:58;;;;;;;;;;;21.10;63.80;;;;;;4477869;32;20327;-73
2022/10/13 11:25:49;;;;;;;;;;;21.10;63.80;;;;;;4478274;32;20387;-74
2022/10/13 11:28:21;;;;;;;;;;;21.10;63.80;;;;;;4476548;32;20319;-74
2022/10/13 11:30:48;;;;;;;;;;;21.10;63.70;;;;;;4478270;32;19986;-74
2022/10/13 11:33:47;;;;;;;;;;;21.20;63.80;;;;;;4477628;32;20478;-74
2022/10/13 11:36:31;;;;;;;;;;;21.20;63.80;;;;;;4459512;32;19982;-73
2022/10/13 11:39:17;;;;;;;;;;;21.20;63.80;;;;;;4477791;32;20380;-73
2022/10/13 11:42:03;;;;;;;;;;;21.20;63.60;;;;;;4460622;32;19992;-74
2022/10/13 11:44:28;;;;;;;;;;;21.20;63.60;;;;;;4460632;32;19989;-74
2022/10/13 11:47:01;;;;;;;;;;;21.30;63.60;;;;;;4477659;32;19962;-73
2022/10/13 11:49:33;;;;;;;;;;;21.30;63.60;;;;;;4477516;32;20167;-73
2022/10/13 11:52:11;;;;;;;;;;;21.30;63.50;;;;;;4477256;32;19989;-74
2022/10/13 11:54:42;;;;;;;;;;;21.30;63.50;;;;;;4477644;32;19981;-72
2022/10/13 11:57:18;;;;;;;;;;;21.30;63.50;;;;;;4477764;32;20036;-73
2022/10/13 11:59:45;;;;;;;;;;;21.40;63.50;;;;;;4477576;32;20395;-74
2022/10/13 12:02:11;;;;;;;;;;;21.40;63.50;;;;;;4477705;32;19986;-73
2022/10/13 12:04:38;;;;;;;;;;;21.50;63.50;;;;;;4463619;32;20292;-73
2022/10/13 12:07:06;;;;;;;;;;;21.50;63.50;;;;;;4477322;32;19978;-72
2022/10/13 12:09:32;;;;;;;;;;;21.50;63.50;;;;;;4477392;32;19977;-73
2022/10/13 12:11:58;;;;;;;;;;;21.50;63.40;;;;;;4477155;32;19986;-74
2022/10/13 12:14:43;;;;;;;;;;;21.60;63.50;;;;;;4477140;32;20339;-74
2022/10/13 12:17:21;;;;;;;;;;;21.50;63.50;;;;;;4477207;32;20014;-72
2022/10/13 12:19:47;;;;;;;;;;;21.60;63.60;;;;;;4477388;32;19974;-75
2022/10/13 12:22:13;;;;;;;;;;;21.50;63.60;;;;;;4477144;32;19989;-76
2022/10/13 12:24:39;;;;;;;;;;;21.50;63.70;;;;;;4477605;32;19981;-77
2022/10/13 12:27:34;;;;;;;;;;;21.60;63.80;;;;;;4477140;32;19974;-78
2022/10/13 12:30:01;;;;;;;;;;;21.60;63.80;;;;;;4456429;32;20036;-78
2022/10/13 12:32:30;;;;;;;;;;;21.70;63.80;;;;;;4477413;32;19985;-77
2022/10/13 12:35:08;;;;;;;;;;;21.60;63.80;;;;;;4462891;32;19977;-78
2022/10/13 12:37:36;;;;;;;;;;;21.70;63.90;;;;;;4477289;32;19982;-77
2022/10/13 12:40:03;;;;;;;;;;;21.70;63.90;;;;;;4477132;32;19981;-77
2022/10/13 12:42:34;;;;;;;;;;;21.70;63.80;;;;;;4477051;32;19986;-77
2022/10/13 12:45:00;;;;;;;;;;;21.70;63.90;;;;;;4477088;32;19988;-77
2022/10/13 12:47:44;;;;;;;;;;;21.70;63.80;;;;;;4477136;32;20442;-76
2022/10/13 12:50:28;;;;;;;;;;;21.70;63.90;;;;;;4476843;32;20017;-78
2022/10/13 12:53:06;;;;;;;;;;;21.70;63.90;;;;;;4463027;32;20111;-79
2022/10/13 12:55:33;;;;;;;;;;;21.80;64.00;;;;;;4477046;32;19988;-79
2022/10/13 12:57:59;;;;;;;;;;;21.80;64.00;;;;;;4477238;32;19984;-78
2022/10/13 13:00:26;;;;;;;;;;;21.80;64.00;;;;;;4476919;32;19977;-78
2022/10/13 13:02:52;;;;;;;;;;;21.80;64.00;;;;;;4477117;32;20043;-78
2022/10/13 13:05:36;;;;;;;;;;;21.70;64.10;;;;;;4476840;32;20092;-78
2022/10/13 13:08:19;;;;;;;;;;;21.70;64.10;;;;;;4476825;32;20300;-78
2022/10/13 13:10:55;;;;;;;;;;;21.70;64.20;;;;;;4462868;32;20335;-79
2022/10/13 13:13:21;;;;;;;;;;;21.70;64.30;;;;;;4462856;32;20010;-79
2022/10/13 13:15:47;;;;;;;;;;;21.60;64.50;;;;;;4476900;32;20039;-79
2022/10/13 13:18:28;;;;;;;;;;;21.60;64.60;;;;;;4463022;32;20088;-79
2022/10/13 13:20:54;;;;;;;;;;;21.50;64.80;;;;;;4476919;32;19974;-79
2022/10/13 13:23:22;;;;;;;;;;;21.50;65.00;;;;;;4476544;32;20091;-80
2022/10/13 13:26:00;;;;;;;;;;;21.40;65.90;;;;;;4480016;32;20288;-79
2022/10/13 13:28:30;;;;;;;;;;;21.40;65.20;;;;;;4479975;32;19990;-79
2022/10/13 13:30:57;;;;;;;;;;;21.40;65.30;;;;;;4479948;32;19988;-79
2022/10/13 13:33:23;;;;;;;;;;;21.40;65.40;;;;;;4479954;32;20410;-79
2022/10/13 13:35:49;;;;;;;;;;;21.30;65.40;;;;;;4479824;32;19974;-79
2022/10/13 13:38:14;;;;;;;;;;;21.30;65.40;;;;;;4479873;32;20096;-79
2022/10/13 13:40:40;;;;;;;;;;;21.30;65.50;;;;;;4479526;32;20487;-80
2022/10/13 13:43:07;;;;;;;;;;;21.30;65.50;;;;;;4479522;32;20092;-79
2022/10/13 13:45:32;;;;;;;;;;;21.30;65.50;;;;;;4479681;32;20036;-80
2022/10/13 13:47:59;;;;;;;;;;;21.30;65.60;;;;;;4465293;32;19970;-79
2022/10/13 13:50:27;;;;;;;;;;;21.30;65.70;;;;;;4479706;32;20430;-79
2022/10/13 13:52:52;;;;;;;;;;;21.20;65.70;;;;;;4480217;32;19970;-80
2022/10/13 13:55:18;;;;;;;;;;;21.20;65.70;;;;;;4479592;32;19973;-80
2022/10/13 13:57:46;;;;;;;;;;;21.20;65.80;;;;;;4465448;32;19988;-80
2022/10/13 14:00:13;;;;;;;;;;;21.20;65.80;;;;;;4479562;32;19970;-79
2022/10/13 14:02:39;;;;;;;;;;;21.20;65.90;;;;;;4479559;32;20051;-76
2022/10/13 14:05:04;;;;;;;;;;;21.20;66.00;;;;;;4464876;32;19978;-77
2022/10/13 14:07:30;;;;;;;;;;;21.20;66.00;;;;;;4479584;32;19997;-79
2022/10/13 14:09:56;;;;;;;;;;;21.20;66.00;;;;;;4479255;32;20033;-79
2022/10/13 14:12:22;;;;;;;;;;;21.20;66.00;;;;;;4479325;32;19965;-79
2022/10/13 14:14:47;;;;;;;;;;;21.20;66.10;;;;;;4479106;32;20312;-74
2022/10/13 14:17:13;;;;;;;;;;;21.20;66.20;;;;;;4479098;32;20364;-76
2022/10/13 14:19:40;;;;;;;;;;;21.20;66.30;;;;;;4478975;32;20537;-78
2022/10/13 14:22:06;;;;;;;;;;;21.10;66.30;;;;;;4479346;32;19989;-77
2022/10/13 14:24:31;;;;;;;;;;;21.10;66.40;;;;;;4478995;32;20315;-76
2022/10/13 14:26:57;;;;;;;;;;;21.10;66.30;;;;;;4478895;32;19974;-76
2022/10/13 14:29:23;;;;;;;;;;;21.10;66.40;;;;;;4479007;32;20100;-76
2022/10/13 14:31:49;;;;;;;;;;;21.10;66.50;;;;;;4479048;32;20376;-76
2022/10/13 14:34:15;;;;;;;;;;;21.10;66.50;;;;;;4479209;32;20063;-76
2022/10/13 14:36:41;;;;;;;;;;;21.00;66.50;;;;;;4478516;32;20386;-79
2022/10/13 14:39:06;;;;;;;;;;;21.10;66.50;;;;;;4479213;32;20131;-78
2022/10/13 14:41:32;;;;;;;;;;;21.10;66.50;;;;;;4478947;32;19974;-78